createdAt,value
2023-07-17T00:00:14.120Z,69.36
2023-07-17T00:02:41.321Z,70.41
2023-07-17T00:05:08.209Z,70.28
2023-07-17T00:07:35.018Z,70.37
2023-07-17T00:10:01.544Z,70.65
2023-07-17T00:12:27.926Z,70.41
2023-07-17T00:14:54.357Z,71.02
2023-07-17T00:17:20.908Z,70.79
2023-07-17T00:19:55.288Z,70.88
2023-07-17T00:22:22.615Z,70.77
2023-07-17T00:24:50.413Z,70.61
2023-07-17T00:27:17.069Z,70.57
2023-07-17T00:29:45.170Z,70.67
2023-07-17T00:32:13.012Z,70.78
2023-07-17T00:34:40.569Z,70.87
2023-07-17T00:37:07.539Z,71.16
2023-07-17T00:39:34.475Z,71.41
2023-07-17T00:42:02.229Z,71.53
2023-07-17T00:44:29.133Z,71.70
2023-07-17T00:46:56.271Z,71.90
2023-07-17T00:49:27.057Z,72.43
2023-07-17T00:51:55.426Z,72.98
2023-07-17T00:54:22.632Z,73.27
2023-07-17T00:56:49.631Z,73.68
2023-07-17T00:59:17.635Z,73.74
2023-07-17T01:01:44.332Z,73.80
2023-07-17T01:04:10.863Z,73.26
2023-07-17T01:06:39.995Z,73.20
2023-07-17T01:09:08.526Z,72.93
2023-07-17T01:11:35.366Z,72.31
2023-07-17T01:14:01.802Z,72.08
2023-07-17T01:16:28.383Z,71.84
2023-07-17T01:18:54.832Z,71.69
2023-07-17T01:21:26.612Z,71.35
2023-07-17T01:23:55.363Z,71.22
2023-07-17T01:26:21.839Z,71.10
2023-07-17T01:28:48.309Z,70.71
2023-07-17T01:31:14.886Z,70.68
2023-07-17T01:33:41.370Z,70.55
2023-07-17T01:36:07.798Z,70.57
2023-07-17T01:38:37.579Z,70.53
2023-07-17T01:41:04.086Z,70.67
2023-07-17T01:43:30.471Z,70.44
2023-07-17T01:45:56.839Z,70.63
2023-07-17T01:48:23.311Z,70.87
2023-07-17T01:50:49.901Z,70.66
2023-07-17T01:53:20.017Z,70.83
2023-07-17T01:55:46.381Z,70.83
2023-07-17T01:58:12.893Z,70.59
2023-07-17T02:00:39.301Z,71.02
2023-07-17T02:03:06.112Z,71.49
2023-07-17T02:05:32.872Z,71.02
2023-07-17T02:07:59.316Z,71.03
2023-07-17T02:10:25.796Z,70.53
2023-07-17T02:12:52.199Z,70.73
2023-07-17T02:15:19.324Z,71.28
2023-07-17T02:17:45.757Z,71.22
2023-07-17T02:20:14.392Z,71.00
2023-07-17T02:22:42.140Z,71.67
2023-07-17T02:25:09.153Z,71.83
2023-07-17T02:27:35.746Z,71.38
2023-07-17T02:30:02.268Z,71.89
2023-07-17T02:32:30.035Z,72.12
2023-07-17T02:34:56.417Z,72.34
2023-07-17T02:37:23.237Z,72.04
2023-07-17T02:39:49.650Z,72.43
2023-07-17T02:42:16.052Z,72.80
2023-07-17T02:44:42.395Z,72.57
2023-07-17T02:47:08.749Z,72.52
2023-07-17T02:49:35.178Z,72.19
2023-07-17T02:52:01.608Z,72.67
2023-07-17T02:54:27.978Z,72.57
2023-07-17T02:56:54.376Z,72.94
2023-07-17T02:59:20.767Z,73.13
2023-07-17T03:01:47.172Z,72.86
2023-07-17T03:04:13.614Z,72.58
2023-07-17T03:06:39.997Z,72.92
2023-07-17T03:09:06.411Z,73.03
2023-07-17T03:11:32.942Z,73.16
2023-07-17T03:13:59.352Z,73.85
2023-07-17T03:16:25.740Z,73.98
2023-07-17T03:18:52.170Z,74.22
2023-07-17T03:21:20.426Z,74.61
2023-07-17T03:23:48.757Z,74.71
2023-07-17T03:26:15.506Z,74.62
2023-07-17T03:28:41.859Z,74.86
2023-07-17T03:31:10.115Z,75.02
2023-07-17T03:33:37.896Z,75.69
2023-07-17T03:36:04.365Z,75.65
2023-07-17T03:38:30.777Z,75.63
2023-07-17T03:40:57.729Z,75.84
2023-07-17T03:43:24.110Z,76.30
2023-07-17T03:45:52.340Z,76.18
2023-07-17T03:48:19.134Z,76.51
2023-07-17T03:50:45.779Z,76.38
2023-07-17T03:53:12.153Z,76.43
2023-07-17T03:55:39.985Z,76.84
2023-07-17T03:58:08.097Z,76.62
2023-07-17T04:00:35.060Z,76.98
2023-07-17T04:03:02.015Z,77.04
2023-07-17T04:05:28.546Z,76.73
2023-07-17T04:07:54.930Z,77.34
2023-07-17T04:10:21.396Z,77.25
2023-07-17T04:12:48.567Z,77.42
2023-07-17T04:15:15.078Z,77.33
2023-07-17T04:17:42.064Z,77.87
2023-07-17T04:20:10.915Z,77.51
2023-07-17T04:22:37.328Z,77.60
2023-07-17T04:25:04.951Z,77.69
2023-07-17T04:27:33.917Z,77.83
2023-07-17T04:30:00.279Z,77.91
2023-07-17T04:32:27.281Z,78.10
2023-07-17T04:34:53.677Z,77.86
2023-07-17T04:37:20.481Z,78.04
2023-07-17T04:39:46.893Z,77.93
2023-07-17T04:42:13.266Z,77.86
2023-07-17T04:44:39.634Z,77.80
2023-07-17T04:47:06.216Z,78.37
2023-07-17T04:49:32.628Z,77.94
2023-07-17T04:51:58.987Z,78.12
2023-07-17T04:54:25.368Z,78.10
2023-07-17T04:56:51.777Z,78.08
2023-07-17T04:59:18.177Z,77.67
2023-07-17T05:01:44.619Z,77.78
2023-07-17T05:04:10.991Z,77.98
2023-07-17T05:06:37.400Z,77.81
2023-07-17T05:09:03.841Z,77.99
2023-07-17T05:11:30.359Z,77.93
2023-07-17T05:13:56.703Z,77.78
2023-07-17T05:16:24.189Z,77.70
2023-07-17T05:18:50.658Z,77.79
2023-07-17T05:21:18.562Z,78.15
2023-07-17T05:23:45.297Z,77.53
2023-07-17T05:26:12.586Z,77.80
2023-07-17T05:28:39.621Z,77.43
2023-07-17T05:31:06.043Z,77.46
2023-07-17T05:33:32.521Z,77.34
2023-07-17T05:35:59.020Z,77.28
2023-07-17T05:38:25.417Z,77.14
2023-07-17T05:41:04.076Z,76.89
2023-07-17T05:43:34.393Z,76.97
2023-07-17T05:46:00.831Z,76.94
2023-07-17T05:48:27.280Z,76.42
2023-07-17T05:50:53.673Z,76.50
2023-07-17T05:53:20.037Z,76.09
2023-07-17T05:55:47.613Z,76.08
2023-07-17T05:58:14.105Z,75.71
2023-07-17T06:00:40.534Z,75.81
2023-07-17T06:03:07.346Z,75.52
2023-07-17T06:05:40.108Z,75.64
2023-07-17T06:08:07.442Z,74.61
2023-07-17T06:10:33.873Z,74.31
2023-07-17T06:13:00.387Z,73.87
2023-07-17T06:15:28.208Z,73.76
2023-07-17T06:17:54.887Z,73.06
2023-07-17T06:20:24.162Z,72.75
2023-07-17T06:22:50.753Z,71.67
2023-07-17T06:25:17.254Z,71.16
2023-07-17T06:27:43.732Z,71.51
2023-07-17T06:30:11.437Z,71.21
2023-07-17T06:32:38.231Z,70.88
2023-07-17T06:35:06.869Z,70.69
2023-07-17T06:37:33.445Z,70.16
2023-07-17T06:39:59.888Z,71.10
2023-07-17T06:42:26.431Z,71.18
2023-07-17T06:44:52.909Z,72.23
2023-07-17T06:47:34.325Z,72.18
2023-07-17T06:50:03.891Z,72.31
2023-07-17T06:52:30.320Z,72.02
2023-07-17T06:55:05.021Z,71.06
2023-07-17T06:57:32.453Z,70.73
2023-07-17T06:59:58.843Z,65.45
2023-07-17T07:02:25.464Z,58.68
2023-07-17T07:04:52.020Z,54.70
2023-07-17T07:07:19.008Z,55.64
2023-07-17T07:09:45.989Z,52.88
2023-07-17T07:12:12.451Z,51.70
2023-07-17T07:14:39.005Z,53.04
2023-07-17T07:17:05.612Z,53.16
2023-07-17T07:19:31.974Z,52.42
2023-07-17T07:21:58.446Z,53.15
2023-07-17T07:24:24.818Z,51.70
2023-07-17T07:26:51.210Z,50.94
2023-07-17T07:29:17.626Z,51.25
2023-07-17T07:31:44.027Z,49.51
2023-07-17T07:34:10.437Z,48.03
2023-07-17T07:36:36.791Z,48.55
2023-07-17T07:39:06.579Z,48.60
2023-07-17T07:41:34.255Z,50.97
2023-07-17T07:44:00.637Z,53.44
2023-07-17T07:46:28.693Z,54.09
2023-07-17T07:48:55.317Z,53.24
2023-07-17T07:51:21.761Z,54.17
2023-07-17T07:53:48.138Z,54.72
2023-07-17T07:56:14.543Z,53.39
2023-07-17T07:58:40.915Z,55.32
2023-07-17T08:01:07.303Z,54.48
2023-07-17T08:03:35.375Z,55.07
2023-07-17T08:06:01.855Z,56.78
2023-07-17T08:08:28.210Z,57.37
2023-07-17T08:10:54.944Z,58.53
2023-07-17T08:13:21.316Z,58.29
2023-07-17T08:15:48.410Z,58.07
2023-07-17T08:18:14.927Z,58.27
2023-07-17T08:20:41.349Z,57.99
2023-07-17T08:23:07.762Z,59.68
2023-07-17T08:25:34.178Z,59.10
2023-07-17T08:28:00.520Z,56.90
2023-07-17T08:30:27.014Z,57.28
2023-07-17T08:32:54.530Z,57.85
2023-07-17T08:35:21.088Z,56.03
2023-07-17T08:37:47.494Z,58.62
2023-07-17T08:40:14.127Z,58.36
2023-07-17T08:42:44.982Z,58.19
2023-07-17T08:45:13.199Z,58.29
2023-07-17T08:47:40.164Z,56.36
2023-07-17T08:50:09.579Z,56.81
2023-07-17T08:52:36.160Z,58.05
2023-07-17T08:55:02.709Z,60.85
2023-07-17T08:57:33.267Z,64.45
2023-07-17T09:00:02.360Z,66.21
2023-07-17T09:02:29.365Z,67.07
2023-07-17T09:04:55.766Z,69.24
2023-07-17T09:07:22.122Z,68.36
2023-07-17T09:10:14.592Z,67.88
2023-07-17T09:12:49.592Z,65.98
2023-07-17T09:15:16.958Z,69.00
2023-07-17T09:17:44.491Z,68.26
2023-07-17T09:20:12.382Z,67.21
2023-07-17T09:22:39.450Z,68.17
2023-07-17T09:25:06.988Z,68.24
2023-07-17T09:27:51.326Z,68.78
2023-07-17T09:30:20.777Z,69.76
2023-07-17T09:32:49.662Z,71.60
2023-07-17T09:35:16.319Z,71.03
2023-07-17T09:37:45.818Z,71.62
2023-07-17T09:40:14.657Z,70.89
2023-07-17T09:42:54.133Z,70.44
2023-07-17T09:45:21.137Z,71.73
2023-07-17T09:47:49.455Z,70.92
2023-07-17T09:50:19.350Z,70.43
2023-07-17T09:52:46.369Z,70.42
2023-07-17T09:55:14.487Z,70.80
2023-07-17T09:57:46.848Z,70.10
2023-07-17T10:00:18.665Z,69.09
2023-07-17T10:03:08.678Z,70.07
2023-07-17T10:05:37.348Z,71.25
2023-07-17T10:08:07.636Z,71.00
2023-07-17T10:10:35.970Z,70.43
2023-07-17T10:13:02.857Z,71.26
2023-07-17T10:15:30.396Z,71.70
2023-07-17T10:17:58.687Z,72.34
2023-07-17T10:20:27.311Z,71.97
2023-07-17T10:22:53.858Z,72.97
2023-07-17T10:25:20.203Z,73.57
2023-07-17T10:27:49.075Z,73.51
2023-07-17T10:30:26.035Z,72.94
2023-07-17T10:33:15.750Z,74.80
2023-07-17T10:35:52.298Z,71.48
2023-07-17T10:38:24.148Z,71.88
2023-07-17T10:41:02.097Z,72.63
2023-07-17T10:43:28.560Z,72.24
2023-07-17T10:45:54.964Z,70.18
2023-07-17T10:48:26.118Z,71.00
2023-07-17T10:50:54.891Z,69.73
2023-07-17T10:53:22.473Z,71.41
2023-07-17T10:55:49.158Z,70.13
2023-07-17T10:58:18.332Z,69.95
2023-07-17T11:00:44.815Z,68.31
2023-07-17T11:03:14.078Z,68.44
2023-07-17T11:05:41.687Z,68.69
2023-07-17T11:08:09.765Z,67.87
2023-07-17T11:10:37.184Z,67.94
2023-07-17T11:13:04.533Z,68.55
2023-07-17T11:15:33.637Z,69.25
2023-07-17T11:18:01.642Z,72.18
2023-07-17T11:20:29.873Z,70.39
2023-07-17T11:22:57.863Z,70.36
2023-07-17T11:25:34.186Z,69.84
2023-07-17T11:28:01.297Z,68.52
2023-07-17T11:30:33.244Z,70.29
2023-07-17T11:32:59.613Z,69.71
2023-07-17T11:35:41.293Z,67.34
2023-07-17T11:38:15.913Z,68.10
2023-07-17T11:40:53.227Z,65.92
2023-07-17T11:43:31.917Z,66.09
2023-07-17T11:46:03.124Z,62.49
2023-07-17T11:48:34.216Z,61.99
2023-07-17T11:51:05.516Z,62.53
2023-07-17T11:53:33.296Z,62.33
2023-07-17T11:56:01.360Z,63.59
2023-07-17T11:58:36.613Z,61.30
2023-07-17T12:01:06.049Z,61.60
2023-07-17T12:03:34.184Z,62.41
2023-07-17T12:06:02.839Z,62.77
2023-07-17T12:08:29.443Z,62.22
2023-07-17T12:10:56.059Z,62.57
2023-07-17T12:13:22.520Z,60.78
2023-07-17T12:15:48.969Z,58.22
2023-07-17T12:18:15.353Z,59.00
2023-07-17T12:20:41.864Z,58.20
2023-07-17T12:23:08.374Z,60.24
2023-07-17T12:25:34.869Z,59.41
2023-07-17T12:28:01.846Z,61.62
2023-07-17T12:30:30.054Z,62.48
2023-07-17T12:32:57.444Z,62.96
2023-07-17T12:35:25.332Z,66.02
2023-07-17T12:37:51.810Z,66.44
2023-07-17T12:40:18.969Z,67.96
2023-07-17T12:42:45.374Z,69.12
2023-07-17T12:45:14.524Z,70.04
2023-07-17T12:47:41.120Z,72.45
2023-07-17T12:50:09.162Z,74.98
2023-07-17T12:52:35.544Z,74.02
2023-07-17T12:55:01.955Z,76.35
2023-07-17T12:57:29.341Z,75.16
2023-07-17T12:59:56.005Z,74.68
2023-07-17T13:02:24.319Z,75.69
2023-07-17T13:04:51.428Z,75.69
2023-07-17T13:07:17.974Z,76.79
2023-07-17T13:09:44.438Z,76.19
2023-07-17T13:12:11.725Z,76.04
2023-07-17T13:14:40.256Z,74.68
2023-07-17T13:17:07.423Z,76.85
2023-07-17T13:19:33.920Z,74.96
2023-07-17T13:22:00.317Z,76.78
2023-07-17T13:24:26.865Z,76.37
2023-07-17T13:26:53.774Z,74.85
2023-07-17T13:29:20.197Z,74.72
2023-07-17T13:31:46.684Z,73.92
2023-07-17T13:34:13.199Z,73.51
2023-07-17T13:36:39.762Z,73.38
2023-07-17T13:39:06.166Z,73.26
2023-07-17T13:41:47.647Z,72.01
2023-07-17T13:44:15.253Z,71.17
2023-07-17T13:46:45.329Z,70.33
2023-07-17T13:49:12.778Z,68.43
2023-07-17T13:51:40.204Z,67.55
2023-07-17T13:54:07.927Z,67.03
2023-07-17T13:59:08.319Z,69.39
2023-07-17T14:01:36.057Z,67.35
2023-07-17T14:04:05.637Z,65.91
2023-07-17T14:06:32.896Z,66.09
2023-07-17T14:08:59.575Z,64.37
2023-07-17T14:11:29.482Z,66.45
2023-07-17T14:14:00.976Z,66.96
2023-07-17T14:16:27.939Z,64.90
2023-07-17T14:18:54.312Z,62.28
2023-07-17T14:21:20.687Z,64.63
2023-07-17T14:23:47.237Z,63.98
2023-07-17T14:26:13.980Z,63.89
2023-07-17T14:28:40.341Z,64.06
2023-07-17T14:31:06.733Z,62.77
2023-07-17T14:33:33.165Z,66.36
2023-07-17T14:35:59.623Z,65.80
2023-07-17T14:38:26.015Z,66.46
2023-07-17T14:40:52.859Z,67.45
2023-07-17T14:43:19.233Z,67.22
2023-07-17T14:45:45.855Z,66.39
2023-07-17T14:48:12.359Z,65.92
2023-07-17T14:50:38.940Z,64.83
2023-07-17T14:53:05.423Z,65.12
2023-07-17T14:55:32.564Z,63.29
2023-07-17T14:58:00.873Z,63.82
2023-07-17T15:00:27.245Z,65.15
2023-07-17T15:02:54.054Z,63.95
2023-07-17T15:05:21.432Z,60.11
2023-07-17T15:07:48.203Z,63.65
2023-07-17T15:10:14.555Z,65.19
2023-07-17T15:12:41.022Z,61.57
2023-07-17T15:15:08.170Z,63.55
2023-07-17T15:17:34.673Z,65.12
2023-07-17T15:20:01.177Z,62.46
2023-07-17T15:22:28.240Z,63.91
2023-07-17T15:24:54.614Z,63.10
2023-07-17T15:27:21.104Z,61.16
2023-07-17T15:29:47.442Z,60.16
2023-07-17T15:32:13.873Z,62.45
2023-07-17T15:34:40.416Z,63.70
2023-07-17T15:37:07.484Z,62.49
2023-07-17T15:39:33.877Z,61.49
2023-07-17T15:42:01.249Z,62.17
2023-07-17T15:44:27.606Z,62.16
2023-07-17T15:46:54.067Z,60.94
2023-07-17T15:49:20.449Z,61.93
2023-07-17T15:51:46.996Z,59.84
2023-07-17T15:54:13.370Z,60.99
2023-07-17T15:56:39.907Z,59.96
2023-07-17T15:59:06.406Z,60.94
2023-07-17T16:01:32.932Z,61.13
2023-07-17T16:03:59.336Z,63.03
2023-07-17T16:06:25.937Z,60.05
2023-07-17T16:08:53.472Z,58.22
2023-07-17T16:11:19.864Z,57.77
2023-07-17T16:13:47.512Z,56.13
2023-07-17T16:16:14.044Z,56.82
2023-07-17T16:18:40.436Z,55.96
2023-07-17T16:21:06.844Z,56.52
2023-07-17T16:23:33.234Z,58.72
2023-07-17T16:25:59.645Z,61.49
2023-07-17T16:28:26.122Z,62.26
2023-07-17T16:30:52.629Z,61.68
2023-07-17T16:33:19.032Z,60.38
2023-07-17T16:35:45.384Z,57.28
2023-07-17T16:38:11.723Z,55.36
2023-07-17T16:40:38.307Z,56.70
2023-07-17T16:43:04.897Z,54.65
2023-07-17T16:45:31.394Z,57.63
2023-07-17T16:47:58.190Z,57.95
2023-07-17T16:50:25.020Z,58.14
2023-07-17T16:52:52.107Z,56.26
2023-07-17T16:55:18.498Z,55.26
2023-07-17T16:57:44.886Z,56.30
2023-07-17T17:00:16.121Z,54.20
2023-07-17T17:02:46.006Z,53.63
2023-07-17T17:05:13.084Z,52.90
2023-07-17T17:07:41.091Z,52.67
2023-07-17T17:10:08.099Z,53.12
2023-07-17T17:12:34.505Z,51.62
2023-07-17T17:15:00.971Z,50.68
2023-07-17T17:17:27.464Z,52.97
2023-07-17T17:19:55.944Z,50.97
2023-07-17T17:22:22.314Z,51.65
2023-07-17T17:24:48.704Z,52.78
2023-07-17T17:27:15.096Z,52.06
2023-07-17T17:29:41.441Z,54.88
2023-07-17T17:32:07.954Z,52.04
2023-07-17T17:34:34.390Z,51.85
2023-07-17T17:37:01.171Z,51.81
2023-07-17T17:39:27.791Z,54.81
2023-07-17T17:41:54.326Z,55.88
2023-07-17T17:44:20.774Z,56.81
2023-07-17T17:46:47.325Z,55.43
2023-07-17T17:49:13.809Z,53.96
2023-07-17T17:51:40.283Z,54.98
2023-07-17T17:54:06.890Z,57.39
2023-07-17T17:56:33.277Z,55.94
2023-07-17T17:58:59.640Z,53.50
2023-07-17T18:01:26.079Z,53.78
2023-07-17T18:03:52.531Z,55.42
2023-07-17T18:06:19.105Z,57.45
2023-07-17T18:08:45.493Z,55.93
2023-07-17T18:11:13.298Z,54.33
2023-07-17T18:13:39.661Z,52.73
2023-07-17T18:16:07.211Z,53.90
2023-07-17T18:18:34.020Z,53.21
2023-07-17T18:21:00.367Z,54.62
2023-07-17T18:23:26.784Z,53.96
2023-07-17T18:25:53.340Z,54.50
2023-07-17T18:28:19.799Z,56.22
2023-07-17T18:30:46.196Z,55.30
2023-07-17T18:33:12.777Z,54.21
2023-07-17T18:35:39.164Z,56.06
2023-07-17T18:38:05.616Z,56.02
2023-07-17T18:40:32.189Z,57.44
2023-07-17T18:42:58.567Z,57.50
2023-07-17T18:45:25.655Z,58.60
2023-07-17T18:47:52.013Z,58.03
2023-07-17T18:50:18.424Z,57.81
2023-07-17T18:52:44.828Z,58.04
2023-07-17T18:55:11.182Z,59.40
2023-07-17T18:57:37.744Z,58.50
2023-07-17T19:00:08.798Z,59.63
2023-07-17T19:02:35.265Z,60.40
2023-07-17T19:05:01.726Z,61.14
2023-07-17T19:07:28.167Z,61.32
2023-07-17T19:09:55.363Z,61.60
2023-07-17T19:12:21.923Z,61.30
2023-07-17T19:14:48.501Z,62.26
2023-07-17T19:17:14.850Z,62.01
2023-07-17T19:19:41.205Z,62.88
2023-07-17T19:22:07.598Z,63.06
2023-07-17T19:24:34.004Z,62.81
2023-07-17T19:27:02.136Z,63.68
2023-07-17T19:29:29.118Z,63.71
2023-07-17T19:31:55.773Z,64.53
2023-07-17T19:34:22.255Z,63.82
2023-07-17T19:36:48.643Z,64.26
2023-07-17T19:39:15.026Z,64.52
2023-07-17T19:41:45.589Z,65.68
2023-07-17T19:44:14.685Z,66.04
2023-07-17T19:46:41.128Z,66.06
2023-07-17T19:49:07.533Z,66.22
2023-07-17T19:51:33.924Z,67.96
2023-07-17T19:54:00.425Z,67.42
2023-07-17T19:56:26.829Z,66.97
2023-07-17T19:58:53.235Z,66.77
2023-07-17T20:01:19.665Z,67.25
2023-07-17T20:03:47.900Z,67.18
2023-07-17T20:06:14.561Z,68.48
2023-07-17T20:08:41.106Z,68.00
2023-07-17T20:11:07.463Z,70.46
2023-07-17T20:13:34.995Z,69.09
2023-07-17T20:16:01.422Z,70.03
2023-07-17T20:18:27.828Z,69.93
2023-07-17T20:20:56.624Z,70.36
2023-07-17T20:23:23.150Z,70.33
2023-07-17T20:25:49.517Z,70.09
2023-07-17T20:28:18.192Z,70.08
2023-07-17T20:30:45.138Z,69.62
2023-07-17T20:33:11.567Z,71.40
2023-07-17T20:35:37.983Z,72.03
2023-07-17T20:38:04.567Z,71.34
2023-07-17T20:40:33.238Z,71.98
2023-07-17T20:43:00.608Z,72.51
2023-07-17T20:45:34.044Z,72.06
2023-07-17T20:48:02.107Z,73.06
2023-07-17T20:50:29.361Z,72.55
2023-07-17T20:52:57.846Z,73.46
2023-07-17T20:55:24.589Z,74.13
2023-07-17T20:57:51.325Z,74.07
2023-07-17T21:00:17.693Z,75.00
2023-07-17T21:02:45.523Z,75.02
2023-07-17T21:05:11.943Z,74.40
2023-07-17T21:07:38.380Z,73.60
2023-07-17T21:10:06.343Z,73.61
2023-07-17T21:12:32.809Z,74.17
2023-07-17T21:14:59.242Z,74.28
2023-07-17T21:17:25.772Z,74.58
2023-07-17T21:19:52.688Z,74.89
2023-07-17T21:22:20.577Z,74.93
2023-07-17T21:24:47.143Z,75.74
2023-07-17T21:27:13.519Z,75.80
2023-07-17T21:29:40.671Z,76.32
2023-07-17T21:32:07.590Z,76.57
2023-07-17T21:34:33.957Z,76.39
2023-07-17T21:37:01.079Z,76.05
2023-07-17T21:39:27.513Z,76.68
2023-07-17T21:41:53.982Z,76.21
2023-07-17T21:44:20.341Z,77.01
2023-07-17T21:46:46.756Z,77.34
2023-07-17T21:49:13.589Z,76.75
2023-07-17T21:51:39.962Z,77.32
2023-07-17T21:54:07.713Z,78.23
2023-07-17T21:56:34.107Z,78.25
2023-07-17T21:59:00.479Z,78.00
2023-07-17T22:01:26.914Z,79.00
2023-07-17T22:03:54.961Z,79.25
2023-07-17T22:06:22.207Z,78.80
2023-07-17T22:08:48.663Z,79.03
2023-07-17T22:11:15.054Z,79.09
2023-07-17T22:13:41.412Z,79.30
2023-07-17T22:16:07.859Z,79.27
2023-07-17T22:18:36.671Z,79.57
2023-07-17T22:21:03.243Z,79.75
2023-07-17T22:23:30.147Z,80.12
2023-07-17T22:25:57.061Z,80.11
2023-07-17T22:28:23.517Z,80.24
2023-07-17T22:30:50.031Z,80.13
2023-07-17T22:33:16.579Z,80.59
2023-07-17T22:35:43.003Z,79.63
2023-07-17T22:38:09.408Z,79.99
2023-07-17T22:40:35.778Z,79.89
2023-07-17T22:43:02.156Z,80.70
2023-07-17T22:45:28.561Z,80.21
2023-07-17T22:47:56.140Z,80.51
2023-07-17T22:50:23.496Z,80.73
2023-07-17T22:52:49.948Z,81.81
2023-07-17T22:55:16.568Z,81.60
2023-07-17T22:57:44.233Z,80.77
2023-07-17T23:00:14.338Z,80.97
2023-07-17T23:02:40.795Z,80.58
2023-07-17T23:05:07.987Z,80.61
2023-07-17T23:07:34.441Z,80.41
2023-07-17T23:10:00.823Z,80.80
2023-07-17T23:12:27.294Z,80.95
2023-07-17T23:14:56.394Z,81.25
2023-07-17T23:17:23.823Z,81.30
2023-07-17T23:19:51.673Z,81.47
2023-07-17T23:22:19.046Z,81.10
2023-07-17T23:24:46.028Z,81.38
2023-07-17T23:27:13.518Z,81.95
2023-07-17T23:29:40.553Z,82.08
2023-07-17T23:32:07.982Z,81.93
2023-07-17T23:34:35.300Z,82.26
2023-07-17T23:37:01.999Z,82.67
2023-07-17T23:39:29.373Z,82.18
2023-07-17T23:41:55.782Z,82.37
2023-07-17T23:44:22.159Z,82.38
2023-07-17T23:46:48.938Z,82.16
2023-07-17T23:49:15.328Z,82.01
2023-07-17T23:51:41.704Z,81.85
2023-07-17T23:54:08.076Z,82.38
2023-07-17T23:56:35.298Z,82.09
2023-07-17T23:59:01.726Z,82.41
